createdAt,value
2023-05-06T00:01:53.619Z,96362.00
2023-05-06T00:05:56.726Z,96365.00
2023-05-06T00:10:01.962Z,96347.00
2023-05-06T00:14:05.379Z,96344.00
2023-05-06T00:18:10.860Z,96333.00
2023-05-06T00:22:13.893Z,96336.00
2023-05-06T00:26:20.193Z,96332.00
2023-05-06T00:30:25.724Z,96333.00
2023-05-06T00:34:30.159Z,96321.00
2023-05-06T00:38:34.788Z,96330.00
2023-05-06T00:42:37.825Z,96320.00
2023-05-06T00:46:45.342Z,96322.00
2023-05-06T00:50:52.692Z,96324.00
2023-05-06T00:54:58.516Z,96311.00
2023-05-06T00:59:06.484Z,96313.00
2023-05-06T01:03:11.505Z,96325.00
2023-05-06T01:07:25.520Z,96318.00
2023-05-06T01:11:39.801Z,96315.00
2023-05-06T01:15:47.295Z,96321.00
2023-05-06T01:19:54.489Z,96316.00
2023-05-06T01:24:00.528Z,96309.00
2023-05-06T01:28:03.836Z,96313.00
2023-05-06T01:32:22.220Z,96312.00
2023-05-06T01:36:40.995Z,96311.00
2023-05-06T01:40:48.986Z,96318.00
2023-05-06T01:44:56.376Z,96314.00
2023-05-06T01:49:03.881Z,96315.00
2023-05-06T01:53:06.885Z,96316.00
2023-05-06T01:57:12.873Z,96312.00
2023-05-06T02:01:16.264Z,96305.00
2023-05-06T02:05:22.451Z,96308.00
2023-05-06T02:09:25.675Z,96308.00
2023-05-06T02:13:35.032Z,96310.00
2023-05-06T02:17:38.806Z,96308.00
2023-05-06T02:21:43.442Z,96305.00
2023-05-06T02:25:49.616Z,96303.00
2023-05-06T02:29:56.581Z,96306.00
2023-05-06T02:33:59.651Z,96306.00
2023-05-06T02:38:02.699Z,96297.00
2023-05-06T02:42:06.238Z,96290.00
2023-05-06T02:46:11.515Z,96291.00
2023-05-06T02:50:17.020Z,96292.00
2023-05-06T02:54:20.144Z,96291.00
2023-05-06T02:58:28.867Z,96298.00
2023-05-06T03:02:34.587Z,96286.00
2023-05-06T03:06:39.790Z,96291.00
2023-05-06T03:10:42.857Z,96285.00
2023-05-06T03:14:45.865Z,96287.00
2023-05-06T03:18:50.344Z,96282.00
2023-05-06T03:22:56.531Z,96283.00
2023-05-06T03:26:59.806Z,96286.00
2023-05-06T03:31:03.225Z,96281.00
2023-05-06T03:35:13.589Z,96286.00
2023-05-06T03:39:19.598Z,96287.00
2023-05-06T03:43:25.118Z,96279.00
2023-05-06T03:47:30.936Z,96274.00
2023-05-06T03:51:37.634Z,96293.00
2023-05-06T03:55:45.008Z,96288.00
2023-05-06T03:59:52.896Z,96291.00
2023-05-06T04:03:58.756Z,96289.00
2023-05-06T04:08:06.406Z,96298.00
2023-05-06T04:12:09.895Z,96296.00
2023-05-06T04:16:13.294Z,96302.00
2023-05-06T04:20:16.707Z,96301.00
2023-05-06T04:24:21.574Z,96305.00
2023-05-06T04:28:24.671Z,96316.00
2023-05-06T04:32:28.233Z,96321.00
2023-05-06T04:36:31.530Z,96319.00
2023-05-06T04:40:36.671Z,96324.00
2023-05-06T04:44:41.496Z,96330.00
2023-05-06T04:48:44.854Z,96329.00
2023-05-06T04:52:50.992Z,96337.00
2023-05-06T04:56:57.155Z,96334.00
2023-05-06T05:01:04.731Z,96330.00
2023-05-06T05:05:11.513Z,96330.00
2023-05-06T05:09:14.716Z,96339.00
2023-05-06T05:13:27.699Z,96338.00
2023-05-06T05:17:30.887Z,96342.00
2023-05-06T05:21:36.705Z,96345.00
2023-05-06T05:25:39.732Z,96336.00
2023-05-06T05:29:49.768Z,96344.00
2023-05-06T05:33:53.795Z,96345.00
2023-05-06T05:37:56.854Z,96348.00
2023-05-06T05:41:59.960Z,96336.00
2023-05-06T05:46:06.149Z,96340.00
2023-05-06T05:50:17.254Z,96331.00
2023-05-06T05:54:22.519Z,96341.00
2023-05-06T05:58:26.741Z,96347.00
2023-05-06T06:02:33.003Z,96337.00
2023-05-06T06:06:36.257Z,96338.00
2023-05-06T06:10:39.750Z,96354.00
2023-05-06T06:14:50.472Z,96353.00
2023-05-06T06:18:55.376Z,96352.00
2023-05-06T06:23:01.612Z,96347.00
2023-05-06T06:27:07.607Z,96361.00
2023-05-06T06:31:12.534Z,96363.00
2023-05-06T06:35:17.198Z,96369.00
2023-05-06T06:39:20.264Z,96378.00
2023-05-06T06:43:25.071Z,96383.00
2023-05-06T06:47:31.552Z,96381.00
2023-05-06T06:51:36.079Z,96377.00
2023-05-06T06:55:39.210Z,96383.00
2023-05-06T06:59:42.462Z,96380.00
2023-05-06T07:03:45.764Z,96388.00
2023-05-06T07:07:57.567Z,96381.00
2023-05-06T07:12:01.989Z,96396.00
2023-05-06T07:16:05.421Z,96392.00
2023-05-06T07:20:09.846Z,96402.00
2023-05-06T07:24:14.490Z,96408.00
2023-05-06T07:28:18.538Z,96413.00
2023-05-06T07:32:21.684Z,96409.00
2023-05-06T07:36:25.416Z,96417.00
2023-05-06T07:40:35.366Z,96415.00
2023-05-06T07:44:38.615Z,96419.00
2023-05-06T07:48:43.574Z,96425.00
2023-05-06T07:52:49.371Z,96425.00
2023-05-06T07:56:54.858Z,96425.00
2023-05-06T08:01:04.829Z,96427.00
2023-05-06T08:05:09.329Z,96436.00
2023-05-06T08:09:22.364Z,96432.00
2023-05-06T08:13:30.803Z,96447.00
2023-05-06T08:17:38.022Z,96451.00
2023-05-06T08:21:41.304Z,96452.00
2023-05-06T08:25:50.140Z,96456.00
2023-05-06T08:30:00.719Z,96456.00
2023-05-06T08:34:05.731Z,96459.00
2023-05-06T08:38:08.793Z,96460.00
2023-05-06T08:42:12.525Z,96459.00
2023-05-06T08:46:19.966Z,96461.00
2023-05-06T08:50:28.310Z,96460.00
2023-05-06T08:54:35.549Z,96455.00
2023-05-06T08:58:39.656Z,96460.00
2023-05-06T09:02:46.696Z,96458.00
2023-05-06T09:06:52.570Z,96467.00
2023-05-06T09:10:58.460Z,96464.00
2023-05-06T09:15:02.033Z,96464.00
2023-05-06T09:19:06.594Z,96464.00
2023-05-06T09:23:10.674Z,96467.00
2023-05-06T09:27:15.297Z,96457.00
2023-05-06T09:31:21.134Z,96457.00
2023-05-06T09:35:28.605Z,96456.00
2023-05-06T09:39:31.908Z,96453.00
2023-05-06T09:43:42.702Z,96453.00
2023-05-06T09:47:45.988Z,96451.00
2023-05-06T09:51:51.813Z,96451.00
2023-05-06T09:55:59.641Z,96444.00
2023-05-06T10:00:07.237Z,96437.00
2023-05-06T10:04:12.923Z,96446.00
2023-05-06T10:08:20.170Z,96434.00
2023-05-06T10:12:23.347Z,96438.00
2023-05-06T10:16:29.872Z,96432.00
2023-05-06T10:20:35.930Z,96430.00
2023-05-06T10:24:50.268Z,96416.00
2023-05-06T10:28:54.997Z,96423.00
2023-05-06T10:33:05.455Z,96426.00
2023-05-06T10:37:11.057Z,96422.00
2023-05-06T10:41:16.803Z,96416.00
2023-05-06T10:45:20.604Z,96412.00
2023-05-06T10:49:23.665Z,96413.00
2023-05-06T10:54:00.211Z,96406.00
2023-05-06T10:58:16.545Z,96410.00
2023-05-06T11:02:23.133Z,96410.00
2023-05-06T11:06:42.078Z,96405.00
2023-05-06T11:10:45.383Z,96401.00
2023-05-06T11:14:49.969Z,96405.00
2023-05-06T11:18:53.607Z,96406.00
2023-05-06T11:22:56.859Z,96410.00
2023-05-06T11:27:04.250Z,96409.00
2023-05-06T11:31:09.449Z,96412.00
2023-05-06T11:35:17.704Z,96408.00
2023-05-06T11:39:21.120Z,96415.00
2023-05-06T11:43:26.390Z,96407.00
2023-05-06T11:47:30.931Z,96417.00
2023-05-06T11:51:34.243Z,96414.00
2023-05-06T11:55:37.730Z,96415.00
2023-05-06T11:59:46.334Z,96411.00
2023-05-06T12:03:51.818Z,96411.00
2023-05-06T12:07:55.031Z,96413.00
2023-05-06T12:11:58.493Z,96403.00
2023-05-06T12:16:06.030Z,96408.00
2023-05-06T12:20:17.040Z,96406.00
2023-05-06T12:24:29.735Z,96406.00
2023-05-06T12:28:37.535Z,96404.00
2023-05-06T12:32:58.368Z,96393.00
2023-05-06T12:37:05.576Z,96395.00
2023-05-06T12:41:12.975Z,96402.00
2023-05-06T12:45:16.310Z,96404.00
2023-05-06T12:49:21.968Z,96403.00
2023-05-06T12:53:36.593Z,96403.00
2023-05-06T12:57:39.610Z,96399.00
2023-05-06T13:01:42.648Z,96406.00
2023-05-06T13:05:46.502Z,96390.00
2023-05-06T13:09:50.919Z,96401.00
2023-05-06T13:13:56.928Z,96388.00
2023-05-06T13:18:00.358Z,96391.00
2023-05-06T13:22:05.546Z,96383.00
2023-05-06T13:26:11.758Z,96383.00
2023-05-06T13:30:15.308Z,96386.00
2023-05-06T13:34:21.393Z,96389.00
2023-05-06T13:38:27.464Z,96382.00
2023-05-06T13:42:34.122Z,96378.00
2023-05-06T13:46:37.163Z,96382.00
2023-05-06T13:50:42.714Z,96373.00
2023-05-06T13:54:46.294Z,96368.00
2023-05-06T13:58:51.059Z,96371.00
2023-05-06T14:02:56.756Z,96368.00
2023-05-06T14:07:02.688Z,96369.00
2023-05-06T14:11:05.758Z,96360.00
2023-05-06T14:15:14.126Z,96351.00
2023-05-06T14:19:20.359Z,96349.00
2023-05-06T14:23:24.977Z,96352.00
2023-05-06T14:27:31.097Z,96348.00
2023-05-06T14:31:35.570Z,96341.00
2023-05-06T14:35:41.873Z,96343.00
2023-05-06T14:39:44.867Z,96344.00
2023-05-06T14:43:48.788Z,96338.00
2023-05-06T14:47:53.201Z,96334.00
2023-05-06T14:52:02.264Z,96336.00
2023-05-06T14:56:11.595Z,96334.00
2023-05-06T15:00:16.058Z,96332.00
2023-05-06T15:04:26.031Z,96330.00
2023-05-06T15:08:29.012Z,96332.00
2023-05-06T15:12:32.343Z,96332.00
2023-05-06T15:16:35.382Z,96333.00
2023-05-06T15:20:40.854Z,96328.00
2023-05-06T15:24:44.784Z,96327.00
2023-05-06T15:28:50.854Z,96333.00
2023-05-06T15:32:53.915Z,96334.00
2023-05-06T15:37:04.584Z,96329.00
2023-05-06T15:41:09.638Z,96333.00
2023-05-06T15:45:14.165Z,96330.00
2023-05-06T15:53:29.004Z,96330.00
2023-05-06T15:57:34.629Z,96331.00
2023-05-06T16:05:44.186Z,96332.00
2023-05-06T16:09:48.606Z,96322.00
2023-05-06T16:13:51.579Z,96330.00
2023-05-06T16:17:54.619Z,96317.00
2023-05-06T16:22:00.526Z,96323.00
2023-05-06T16:26:05.995Z,96321.00
2023-05-06T16:30:12.251Z,96328.00
2023-05-06T16:34:18.613Z,96329.00
2023-05-06T16:38:21.862Z,96328.00
2023-05-06T16:42:26.407Z,96325.00
2023-05-06T16:46:29.845Z,96326.00
2023-05-06T16:50:35.853Z,96320.00
2023-05-06T16:54:39.122Z,96318.00
2023-05-06T16:58:46.253Z,96316.00
2023-05-06T17:02:51.332Z,96319.00
2023-05-06T17:07:00.567Z,96314.00
2023-05-06T17:11:06.838Z,96320.00
2023-05-06T17:15:12.841Z,96319.00
2023-05-06T17:19:17.124Z,96321.00
2023-05-06T17:23:23.956Z,96314.00
2023-05-06T17:27:29.444Z,96314.00
2023-05-06T17:31:37.829Z,96315.00
2023-05-06T17:35:46.873Z,96319.00
2023-05-06T17:39:49.897Z,96317.00
2023-05-06T17:43:55.424Z,96320.00
2023-05-06T17:48:04.419Z,96318.00
2023-05-06T17:52:07.717Z,96316.00
2023-05-06T17:56:14.002Z,96322.00
2023-05-06T18:00:19.425Z,96321.00
2023-05-06T18:04:23.829Z,96327.00
2023-05-06T18:08:27.927Z,96328.00
2023-05-06T18:12:34.430Z,96315.00
2023-05-06T18:16:37.856Z,96318.00
2023-05-06T18:20:42.346Z,96318.00
2023-05-06T18:24:47.713Z,96316.00
2023-05-06T18:28:50.810Z,96317.00
2023-05-06T18:32:58.991Z,96321.00
2023-05-06T18:37:06.239Z,96321.00
2023-05-06T18:41:09.288Z,96320.00
2023-05-06T18:45:17.801Z,96319.00
2023-05-06T18:49:22.573Z,96333.00
2023-05-06T18:53:29.439Z,96333.00
2023-05-06T18:57:32.552Z,96338.00
2023-05-06T19:01:38.557Z,96338.00
2023-05-06T19:05:42.023Z,96335.00
2023-05-06T19:09:46.488Z,96329.00
2023-05-06T19:13:51.589Z,96343.00
2023-05-06T19:17:56.803Z,96347.00
2023-05-06T19:22:01.819Z,96348.00
2023-05-06T19:26:10.010Z,96339.00
2023-05-06T19:30:13.504Z,96342.00
2023-05-06T19:34:17.840Z,96347.00
2023-05-06T19:38:21.836Z,96347.00
2023-05-06T19:42:26.973Z,96345.00
2023-05-06T19:46:32.292Z,96350.00
2023-05-06T19:50:35.678Z,96345.00
2023-05-06T19:54:38.754Z,96354.00
2023-05-06T19:58:43.166Z,96354.00
2023-05-06T20:02:46.660Z,96353.00
2023-05-06T20:06:55.745Z,96353.00
2023-05-06T20:10:58.874Z,96341.00
2023-05-06T20:15:03.705Z,96339.00
2023-05-06T20:19:09.971Z,96346.00
2023-05-06T20:23:12.990Z,96345.00
2023-05-06T20:27:16.512Z,96341.00
2023-05-06T20:31:21.473Z,96341.00
2023-05-06T20:35:24.726Z,96339.00
2023-05-06T20:39:27.804Z,96347.00
2023-05-06T20:43:31.741Z,96343.00
2023-05-06T20:47:36.695Z,96340.00
2023-05-06T20:51:40.921Z,96344.00
2023-05-06T20:55:43.993Z,96341.00
2023-05-06T20:59:49.504Z,96341.00
2023-05-06T21:03:53.989Z,96337.00
2023-05-06T21:07:56.989Z,96342.00
2023-05-06T21:12:07.050Z,96343.00
2023-05-06T21:16:10.088Z,96332.00
2023-05-06T21:20:19.315Z,96337.00
2023-05-06T21:24:22.745Z,96329.00
2023-05-06T21:28:28.468Z,96330.00
2023-05-06T21:32:33.623Z,96339.00
2023-05-06T21:36:38.596Z,96337.00
2023-05-06T21:40:42.079Z,96334.00
2023-05-06T21:44:46.318Z,96333.00
2023-05-06T21:48:51.214Z,96338.00
2023-05-06T21:52:58.263Z,96346.00
2023-05-06T21:57:01.451Z,96348.00
2023-05-06T22:01:05.854Z,96348.00
2023-05-06T22:05:10.117Z,96340.00
2023-05-06T22:09:17.302Z,96337.00
2023-05-06T22:13:21.177Z,96338.00
2023-05-06T22:17:26.928Z,96339.00
2023-05-06T22:21:31.646Z,96334.00
2023-05-06T22:25:36.347Z,96337.00
2023-05-06T22:29:39.385Z,96346.00
2023-05-06T22:33:44.089Z,96345.00
2023-05-06T22:37:48.076Z,96347.00
2023-05-06T22:41:52.476Z,96338.00
2023-05-06T22:45:55.603Z,96348.00
2023-05-06T22:49:58.611Z,96337.00
2023-05-06T22:54:02.810Z,96340.00
2023-05-06T22:58:08.156Z,96345.00
2023-05-06T23:02:11.193Z,96350.00
2023-05-06T23:06:14.312Z,96342.00
2023-05-06T23:10:21.543Z,96350.00
2023-05-06T23:14:26.279Z,96346.00
2023-05-06T23:18:31.355Z,96342.00
2023-05-06T23:22:37.616Z,96344.00
2023-05-06T23:26:42.255Z,96342.00
2023-05-06T23:30:47.385Z,96338.00
2023-05-06T23:34:52.459Z,96341.00
2023-05-06T23:38:58.282Z,96347.00
2023-05-06T23:43:01.672Z,96328.00
2023-05-06T23:47:11.462Z,96326.00
2023-05-06T23:51:21.981Z,96327.00
2023-05-06T23:55:30.843Z,96333.00
2023-05-06T23:59:35.948Z,96328.00
